createdAt,value
2017-09-20T00:01:46.515Z,24.47
2017-09-20T00:04:13.354Z,24.40
2017-09-20T00:06:40.180Z,23.77
2017-09-20T00:09:07.017Z,24.10
2017-09-20T00:11:34.624Z,24.80
2017-09-20T00:14:02.255Z,22.63
2017-09-20T00:16:29.176Z,19.87
2017-09-20T00:18:55.984Z,23.43
2017-09-20T00:21:22.906Z,25.80
2017-09-20T00:23:49.756Z,25.20
2017-09-20T00:26:16.632Z,24.00
2017-09-20T00:28:43.510Z,23.83
2017-09-20T00:31:10.382Z,25.10
2017-09-20T00:33:37.280Z,26.47
2017-09-20T00:36:04.909Z,24.47
2017-09-20T00:38:31.802Z,28.80
2017-09-20T00:40:58.683Z,24.90
2017-09-20T00:43:26.317Z,27.00
2017-09-20T00:45:53.930Z,26.43
2017-09-20T00:48:20.788Z,25.10
2017-09-20T00:50:48.345Z,25.73
2017-09-20T00:53:15.251Z,24.30
2017-09-20T00:55:42.213Z,26.47
2017-09-20T00:58:09.241Z,27.70
2017-09-20T01:00:36.174Z,23.50
2017-09-20T01:03:03.190Z,23.40
2017-09-20T01:05:30.991Z,26.13
2017-09-20T01:07:58.218Z,25.87
2017-09-20T01:10:25.168Z,24.43
2017-09-20T01:12:52.363Z,25.47
2017-09-20T01:15:19.694Z,27.30
2017-09-20T01:17:46.796Z,28.10
2017-09-20T01:20:31.976Z,28.63
2017-09-20T01:23:17.120Z,25.30
2017-09-20T01:25:45.175Z,27.40
2017-09-20T01:28:12.785Z,25.80
2017-09-20T01:30:39.852Z,24.00
2017-09-20T01:33:07.051Z,28.63
2017-09-20T01:35:33.924Z,27.90
2017-09-20T01:38:00.940Z,29.70
2017-09-20T01:40:27.742Z,29.00
2017-09-20T01:42:54.722Z,28.27
2017-09-20T01:45:22.275Z,27.93
2017-09-20T01:47:49.059Z,26.30
2017-09-20T01:50:16.630Z,26.77
2017-09-20T01:52:43.491Z,24.60
2017-09-20T01:55:10.304Z,25.30
2017-09-20T01:57:37.178Z,25.20
2017-09-20T02:00:04.099Z,24.80
2017-09-20T02:02:30.950Z,23.53
2017-09-20T02:04:58.563Z,25.50
2017-09-20T02:07:25.408Z,24.07
2017-09-20T02:09:52.275Z,25.93
2017-09-20T02:12:19.092Z,29.73
2017-09-20T02:14:45.983Z,30.60
2017-09-20T02:17:13.565Z,33.23
2017-09-20T02:19:41.520Z,31.70
2017-09-20T02:22:08.363Z,29.73
2017-09-20T02:24:35.227Z,28.30
2017-09-20T02:27:02.083Z,29.57
2017-09-20T02:29:28.976Z,33.83
2017-09-20T02:31:55.828Z,30.70
2017-09-20T02:34:22.700Z,28.77
2017-09-20T02:36:50.328Z,28.87
2017-09-20T02:39:17.262Z,29.80
2017-09-20T02:41:44.857Z,33.30
2017-09-20T02:44:11.718Z,34.87
2017-09-20T02:46:38.564Z,38.27
2017-09-20T02:49:05.456Z,38.10
2017-09-20T02:51:32.402Z,33.30
2017-09-20T02:53:59.281Z,32.20
2017-09-20T02:56:26.151Z,36.40
2017-09-20T02:58:53.020Z,37.60
2017-09-20T03:01:19.885Z,39.60
2017-09-20T03:03:46.767Z,35.47
2017-09-20T03:06:13.599Z,34.57
2017-09-20T03:08:40.445Z,35.73
2017-09-20T03:11:07.309Z,39.53
2017-09-20T03:13:34.198Z,37.90
2017-09-20T03:16:01.036Z,38.40
2017-09-20T03:18:27.917Z,40.20
2017-09-20T03:20:54.769Z,40.90
2017-09-20T03:23:21.588Z,41.57
2017-09-20T03:25:48.417Z,39.27
2017-09-20T03:28:15.262Z,38.70
2017-09-20T03:30:42.111Z,39.30
2017-09-20T03:33:08.974Z,40.50
2017-09-20T03:35:35.828Z,41.10
2017-09-20T03:38:02.662Z,35.10
2017-09-20T03:40:29.502Z,37.97
2017-09-20T03:42:57.071Z,41.60
2017-09-20T03:45:24.722Z,39.93
2017-09-20T03:47:51.558Z,43.03
2017-09-20T03:50:18.392Z,42.70
2017-09-20T03:52:45.229Z,40.50
2017-09-20T03:55:12.064Z,40.53
2017-09-20T03:57:38.915Z,39.57
2017-09-20T04:00:05.782Z,41.17
2017-09-20T04:02:32.623Z,44.23
2017-09-20T04:04:59.462Z,43.03
2017-09-20T04:07:26.308Z,46.87
2017-09-20T04:09:53.898Z,53.63
2017-09-20T04:12:21.454Z,46.93
2017-09-20T04:14:48.299Z,46.43
2017-09-20T04:17:15.228Z,48.97
2017-09-20T04:19:42.048Z,48.43
2017-09-20T04:22:09.704Z,48.90
2017-09-20T04:24:36.566Z,46.17
2017-09-20T04:27:03.444Z,47.87
2017-09-20T04:29:31.039Z,50.07
2017-09-20T04:31:58.672Z,49.60
2017-09-20T04:34:25.533Z,50.10
2017-09-20T04:36:52.355Z,49.07
2017-09-20T04:39:19.189Z,48.50
2017-09-20T04:41:46.785Z,49.37
2017-09-20T04:44:13.620Z,48.73
2017-09-20T04:46:41.222Z,48.47
2017-09-20T04:49:08.061Z,51.80
2017-09-20T04:51:34.911Z,50.40
2017-09-20T04:54:01.795Z,49.17
2017-09-20T04:56:29.379Z,50.23
2017-09-20T04:58:56.947Z,48.67
2017-09-20T05:01:24.512Z,44.57
2017-09-20T05:03:51.423Z,48.37
2017-09-20T05:06:18.283Z,47.63
2017-09-20T05:08:45.179Z,50.00
2017-09-20T05:11:12.019Z,47.80
2017-09-20T05:13:38.852Z,50.50
2017-09-20T05:16:05.728Z,47.27
2017-09-20T05:18:32.563Z,47.97
2017-09-20T05:20:59.435Z,46.63
2017-09-20T05:23:26.291Z,46.57
2017-09-20T05:25:53.158Z,47.57
2017-09-20T05:28:20.013Z,48.83
2017-09-20T05:30:46.936Z,45.03
2017-09-20T05:33:13.861Z,42.67
2017-09-20T05:35:40.696Z,44.70
2017-09-20T05:38:08.315Z,49.30
2017-09-20T05:40:35.173Z,45.40
2017-09-20T05:43:02.076Z,44.67
2017-09-20T05:45:28.974Z,44.80
2017-09-20T05:47:55.866Z,42.83
2017-09-20T05:50:22.739Z,51.20
2017-09-20T05:52:49.581Z,45.37
2017-09-20T05:55:16.421Z,44.10
2017-09-20T05:57:43.283Z,48.17
2017-09-20T06:00:10.165Z,48.07
2017-09-20T06:02:37.003Z,52.13
2017-09-20T06:05:03.863Z,49.27
2017-09-20T06:07:30.773Z,46.47
2017-09-20T06:09:57.605Z,50.80
2017-09-20T06:12:24.507Z,49.00
2017-09-20T06:14:51.362Z,54.80
2017-09-20T06:17:19.465Z,54.40
2017-09-20T06:19:46.307Z,55.27
2017-09-20T06:22:13.177Z,52.40
2017-09-20T06:24:40.018Z,52.97
2017-09-20T06:27:06.842Z,56.13
2017-09-20T06:29:33.690Z,53.90
2017-09-20T06:32:01.304Z,52.37
2017-09-20T06:34:28.138Z,49.53
2017-09-20T06:36:55.713Z,48.00
2017-09-20T06:39:23.341Z,51.23
2017-09-20T06:41:50.181Z,45.50
2017-09-20T06:44:17.030Z,47.00
2017-09-20T06:46:43.839Z,44.87
2017-09-20T06:49:10.714Z,46.30
2017-09-20T06:51:37.566Z,44.20
2017-09-20T06:54:04.389Z,49.33
2017-09-20T06:56:31.245Z,44.90
2017-09-20T06:58:58.092Z,44.57
2017-09-20T07:01:25.003Z,48.43
2017-09-20T07:03:51.873Z,49.30
2017-09-20T07:06:18.707Z,47.40
2017-09-20T07:08:45.562Z,45.50
2017-09-20T07:11:12.461Z,46.57
2017-09-20T07:13:39.276Z,48.97
2017-09-20T07:16:06.183Z,46.50
2017-09-20T07:18:33.083Z,49.80
2017-09-20T07:20:59.947Z,46.27
2017-09-20T07:23:26.784Z,49.60
2017-09-20T07:25:54.387Z,49.00
2017-09-20T07:28:21.206Z,47.30
2017-09-20T07:30:48.067Z,50.73
2017-09-20T07:33:14.888Z,50.83
2017-09-20T07:35:41.715Z,47.27
2017-09-20T07:38:09.324Z,49.83
2017-09-20T07:40:36.168Z,47.90
2017-09-20T07:43:03.004Z,50.70
2017-09-20T07:45:30.573Z,50.67
2017-09-20T07:47:57.450Z,47.90
2017-09-20T07:50:25.012Z,49.87
2017-09-20T07:52:51.839Z,51.67
2017-09-20T07:55:18.662Z,50.90
2017-09-20T07:57:46.239Z,49.07
2017-09-20T08:00:13.826Z,46.90
2017-09-20T08:02:40.676Z,49.17
2017-09-20T08:05:07.527Z,49.40
2017-09-20T08:07:35.109Z,47.80
2017-09-20T08:10:02.718Z,47.83
2017-09-20T08:12:29.600Z,46.80
2017-09-20T08:14:56.516Z,43.10
2017-09-20T08:17:24.638Z,42.77
2017-09-20T08:19:51.530Z,42.40
2017-09-20T08:22:18.426Z,36.80
2017-09-20T08:24:46.015Z,36.47
2017-09-20T08:27:12.877Z,36.60
2017-09-20T08:29:39.715Z,31.97
2017-09-20T08:32:07.308Z,33.47
2017-09-20T08:34:34.960Z,31.63
2017-09-20T08:37:01.842Z,31.63
2017-09-20T08:39:29.498Z,30.50
2017-09-20T08:41:56.363Z,29.20
2017-09-20T08:44:23.227Z,31.27
2017-09-20T08:46:50.065Z,28.10
2017-09-20T08:49:16.901Z,27.03
2017-09-20T08:51:43.744Z,28.33
2017-09-20T08:54:10.597Z,29.30
2017-09-20T08:56:38.179Z,28.20
2017-09-20T08:59:05.064Z,29.27
2017-09-20T09:01:31.941Z,27.33
2017-09-20T09:03:58.798Z,26.67
2017-09-20T09:06:25.645Z,28.47
2017-09-20T09:08:52.465Z,27.60
2017-09-20T09:11:20.083Z,27.43
2017-09-20T09:13:46.972Z,28.13
2017-09-20T09:16:13.848Z,28.67
2017-09-20T09:18:40.707Z,27.87
2017-09-20T09:21:07.555Z,28.87
2017-09-20T09:23:34.376Z,28.00
2017-09-20T09:26:01.254Z,26.57
2017-09-20T09:28:28.103Z,29.37
2017-09-20T09:30:54.950Z,29.10
2017-09-20T09:33:22.543Z,30.87
2017-09-20T09:35:49.433Z,31.00
2017-09-20T09:38:16.286Z,31.80
2017-09-20T09:40:43.105Z,30.60
2017-09-20T09:43:10.676Z,34.57
2017-09-20T09:45:38.353Z,31.73
2017-09-20T09:48:05.910Z,32.03
2017-09-20T09:50:32.743Z,32.87
2017-09-20T09:52:59.595Z,34.10
2017-09-20T09:55:26.441Z,32.37
2017-09-20T09:57:53.328Z,34.33
2017-09-20T10:00:20.156Z,32.30
2017-09-20T10:02:47.808Z,31.00
2017-09-20T10:05:14.645Z,30.70
2017-09-20T10:07:41.529Z,31.47
2017-09-20T10:10:08.419Z,29.27
2017-09-20T10:12:36.009Z,28.40
2017-09-20T10:15:02.883Z,27.20
2017-09-20T10:17:29.794Z,28.43
2017-09-20T10:19:56.658Z,26.40
2017-09-20T10:22:23.538Z,28.30
2017-09-20T10:24:51.122Z,28.30
2017-09-20T10:27:18.742Z,28.23
2017-09-20T10:29:45.625Z,27.23
2017-09-20T10:32:12.459Z,26.63
2017-09-20T10:34:39.293Z,26.30
2017-09-20T10:37:06.143Z,25.10
2017-09-20T10:39:33.722Z,26.73
2017-09-20T10:42:01.305Z,24.43
2017-09-20T10:44:28.900Z,24.30
2017-09-20T10:46:55.750Z,24.80
2017-09-20T10:49:22.571Z,23.40
2017-09-20T10:51:50.024Z,23.17
2017-09-20T10:54:16.859Z,22.87
2017-09-20T10:56:45.094Z,22.40
2017-09-20T10:59:11.953Z,22.50
2017-09-20T11:01:38.794Z,21.30
2017-09-20T11:04:05.662Z,22.13
2017-09-20T11:06:32.479Z,22.90
2017-09-20T11:08:59.403Z,20.67
2017-09-20T11:11:26.245Z,19.73
2017-09-20T11:13:53.164Z,19.97
2017-09-20T11:16:20.722Z,16.73
2017-09-20T11:18:48.294Z,16.13
2017-09-20T11:21:15.107Z,15.40
2017-09-20T11:23:41.928Z,16.60
2017-09-20T11:26:09.520Z,15.70
2017-09-20T11:28:36.352Z,16.20
2017-09-20T11:31:03.199Z,15.70
2017-09-20T11:33:30.058Z,17.60
2017-09-20T11:35:56.951Z,16.13
2017-09-20T11:38:24.522Z,16.00
2017-09-20T11:40:51.348Z,13.27
2017-09-20T11:43:18.217Z,12.60
2017-09-20T11:45:45.076Z,11.87
2017-09-20T11:48:12.037Z,17.10
2017-09-20T11:50:38.878Z,15.90
2017-09-20T11:53:05.828Z,17.00
2017-09-20T11:55:32.678Z,15.93
2017-09-20T11:57:59.555Z,13.70
2017-09-20T12:00:27.156Z,13.43
2017-09-20T12:02:53.999Z,14.80
2017-09-20T12:05:20.861Z,12.20
2017-09-20T12:07:47.720Z,12.77
2017-09-20T12:10:14.540Z,12.33
2017-09-20T12:12:41.384Z,10.20
2017-09-20T12:15:08.201Z,9.07
2017-09-20T12:17:35.792Z,8.57
2017-09-20T12:20:03.379Z,8.60
2017-09-20T12:22:30.249Z,8.80
2017-09-20T12:24:57.067Z,8.20
2017-09-20T12:27:23.892Z,7.83
2017-09-20T12:29:50.718Z,7.60
2017-09-20T12:32:17.552Z,9.43
2017-09-20T12:34:44.384Z,7.10
2017-09-20T12:37:11.242Z,5.80
2017-09-20T12:39:38.076Z,5.80
2017-09-20T12:42:04.906Z,4.80
2017-09-20T12:44:31.792Z,5.87
2017-09-20T12:47:00.325Z,3.67
2017-09-20T12:49:27.249Z,4.30
2017-09-20T12:51:58.716Z,3.93
2017-09-20T12:54:25.590Z,3.33
2017-09-20T12:56:52.432Z,3.00
2017-09-20T12:59:19.294Z,3.60
2017-09-20T13:01:46.190Z,3.20
2017-09-20T13:04:13.011Z,2.87
2017-09-20T13:06:39.882Z,3.60
2017-09-20T13:09:06.761Z,3.80
2017-09-20T13:11:33.628Z,3.37
2017-09-20T13:14:00.489Z,3.30
2017-09-20T13:16:27.343Z,3.57
2017-09-20T13:18:54.178Z,3.20
2017-09-20T13:21:21.065Z,3.50
2017-09-20T13:23:47.938Z,4.00
2017-09-20T13:26:14.844Z,4.20
2017-09-20T13:28:41.694Z,4.10
2017-09-20T13:31:09.248Z,3.03
2017-09-20T13:33:36.124Z,3.27
2017-09-20T13:36:03.005Z,3.00
2017-09-20T13:38:29.871Z,2.70
2017-09-20T13:40:56.718Z,2.80
2017-09-20T13:43:24.315Z,3.00
2017-09-20T13:45:51.196Z,3.17
2017-09-20T13:48:18.018Z,3.53
2017-09-20T13:50:45.616Z,2.93
2017-09-20T13:53:12.498Z,3.93
2017-09-20T13:55:39.350Z,3.73
2017-09-20T13:58:06.261Z,3.60
2017-09-20T14:00:35.236Z,4.20
2017-09-20T14:03:04.101Z,4.70
2017-09-20T14:05:32.818Z,5.13
2017-09-20T14:08:02.417Z,4.67
2017-09-20T14:10:29.927Z,5.57
2017-09-20T14:12:58.694Z,4.63
2017-09-20T14:15:25.630Z,5.30
2017-09-20T14:17:52.447Z,4.80
2017-09-20T14:20:19.302Z,5.00
2017-09-20T14:22:46.915Z,4.73
2017-09-20T14:25:13.801Z,5.00
2017-09-20T14:27:40.687Z,5.40
2017-09-20T14:30:08.266Z,4.70
2017-09-20T14:32:35.871Z,4.90
2017-09-20T14:35:02.747Z,4.40
2017-09-20T14:37:29.718Z,4.27
2017-09-20T14:39:56.542Z,3.93
2017-09-20T14:42:25.305Z,4.50
2017-09-20T14:44:52.925Z,5.00
2017-09-20T14:47:20.541Z,4.67
2017-09-20T14:49:47.385Z,4.60
2017-09-20T14:52:14.233Z,4.70
2017-09-20T14:54:41.826Z,4.10
2017-09-20T14:57:09.726Z,3.60
2017-09-20T14:59:36.617Z,4.20
2017-09-20T15:02:03.474Z,4.20
2017-09-20T15:04:30.377Z,4.70
2017-09-20T15:06:57.968Z,4.43
2017-09-20T15:09:24.817Z,4.80
2017-09-20T15:11:52.389Z,4.20
2017-09-20T15:14:19.972Z,4.33
2017-09-20T15:16:47.537Z,4.23
2017-09-20T15:19:15.119Z,4.40
2017-09-20T15:21:42.703Z,5.83
2017-09-20T15:24:09.554Z,5.33
2017-09-20T15:26:36.403Z,6.17
2017-09-20T15:29:03.271Z,5.63
2017-09-20T15:31:30.143Z,4.83
2017-09-20T15:33:57.735Z,5.63
2017-09-20T15:36:25.336Z,5.50
2017-09-20T15:38:52.193Z,5.00
2017-09-20T15:41:19.024Z,5.80
2017-09-20T15:43:46.614Z,5.73
2017-09-20T15:46:14.209Z,5.70
2017-09-20T15:48:41.123Z,5.47
2017-09-20T15:51:08.752Z,5.70
2017-09-20T15:53:35.631Z,5.90
2017-09-20T15:56:02.498Z,5.07
2017-09-20T15:58:29.332Z,4.90
2017-09-20T16:00:56.167Z,5.23
2017-09-20T16:03:23.783Z,5.47
2017-09-20T16:05:50.603Z,5.87
2017-09-20T16:08:18.226Z,6.13
2017-09-20T16:10:45.121Z,6.60
2017-09-20T16:13:11.992Z,6.17
2017-09-20T16:15:38.908Z,5.80
2017-09-20T16:18:06.491Z,6.10
2017-09-20T16:20:33.336Z,6.40
2017-09-20T16:23:00.159Z,6.50
2017-09-20T16:25:27.012Z,7.00
2017-09-20T16:27:53.921Z,6.60
2017-09-20T16:30:20.778Z,6.30
2017-09-20T16:32:47.638Z,6.53
2017-09-20T16:35:14.504Z,6.60
2017-09-20T16:37:41.382Z,5.50
2017-09-20T16:40:08.264Z,6.00
2017-09-20T16:42:35.134Z,5.67
2017-09-20T16:45:02.010Z,5.47
2017-09-20T16:47:28.917Z,5.00
2017-09-20T16:49:56.616Z,5.70
2017-09-20T16:52:23.476Z,4.80
2017-09-20T16:54:51.036Z,5.40
2017-09-20T16:57:17.944Z,5.53
2017-09-20T16:59:44.807Z,5.40
2017-09-20T17:02:11.973Z,5.60
2017-09-20T17:04:38.845Z,4.40
2017-09-20T17:07:05.731Z,4.93
2017-09-20T17:09:33.530Z,5.50
2017-09-20T17:12:00.385Z,5.60
2017-09-20T17:14:27.289Z,5.73
2017-09-20T17:16:54.141Z,5.40
2017-09-20T17:19:21.011Z,4.60
2017-09-20T17:21:47.853Z,5.00
2017-09-20T17:24:14.718Z,5.20
2017-09-20T17:26:41.556Z,5.40
2017-09-20T17:29:08.453Z,5.30
2017-09-20T17:31:35.401Z,5.13
2017-09-20T17:34:02.324Z,4.70
2017-09-20T17:36:29.992Z,4.90
2017-09-20T17:38:56.833Z,4.30
2017-09-20T17:41:23.709Z,4.70
2017-09-20T17:43:50.585Z,4.77
2017-09-20T17:46:17.464Z,5.10
2017-09-20T17:48:45.157Z,4.90
2017-09-20T17:51:12.114Z,5.47
2017-09-20T17:53:39.740Z,5.33
2017-09-20T17:56:06.664Z,5.37
2017-09-20T17:58:33.563Z,6.20
2017-09-20T18:01:00.452Z,5.33
2017-09-20T18:03:27.325Z,5.23
2017-09-20T18:05:55.562Z,5.30
2017-09-20T18:08:22.470Z,5.10
2017-09-20T18:10:49.420Z,5.40
2017-09-20T18:13:16.290Z,4.97
2017-09-20T18:15:43.152Z,5.97
2017-09-20T18:18:10.011Z,5.03
2017-09-20T18:20:37.648Z,5.30
2017-09-20T18:23:04.551Z,5.60
2017-09-20T18:25:31.443Z,6.40
2017-09-20T18:27:59.094Z,5.80
2017-09-20T18:30:25.944Z,5.80
2017-09-20T18:32:52.784Z,5.23
2017-09-20T18:35:19.687Z,4.93
2017-09-20T18:37:46.566Z,5.60
2017-09-20T18:40:14.174Z,6.00
2017-09-20T18:42:41.042Z,5.77
2017-09-20T18:45:08.056Z,5.30
2017-09-20T18:47:34.901Z,5.77
2017-09-20T18:50:01.875Z,4.80
2017-09-20T18:52:28.850Z,7.30
2017-09-20T18:54:55.781Z,5.60
2017-09-20T18:57:22.771Z,5.80
2017-09-20T18:59:49.656Z,6.27
2017-09-20T19:02:17.344Z,5.50
2017-09-20T19:04:44.191Z,6.43
2017-09-20T19:07:12.183Z,5.93
2017-09-20T19:09:39.134Z,5.90
2017-09-20T19:12:06.131Z,6.73
2017-09-20T19:14:32.977Z,6.23
2017-09-20T19:17:00.532Z,5.27
2017-09-20T19:19:27.375Z,7.40
2017-09-20T19:21:54.265Z,7.43
2017-09-20T19:24:21.898Z,6.73
2017-09-20T19:26:48.823Z,7.30
2017-09-20T19:29:15.774Z,6.10
2017-09-20T19:31:43.504Z,6.10
2017-09-20T19:34:10.603Z,5.63
2017-09-20T19:36:37.533Z,6.37
2017-09-20T19:39:04.453Z,6.73
2017-09-20T19:41:32.071Z,5.97
2017-09-20T19:43:58.988Z,6.10
2017-09-20T19:46:26.710Z,6.00
2017-09-20T19:48:53.825Z,5.77
2017-09-20T19:51:20.756Z,6.00
2017-09-20T19:53:49.709Z,6.07
2017-09-20T19:56:17.365Z,5.87
2017-09-20T19:58:44.212Z,8.20
2017-09-20T20:01:11.178Z,6.97
2017-09-20T20:03:38.035Z,7.70
2017-09-20T20:06:04.882Z,7.73
2017-09-20T20:08:32.500Z,6.97
2017-09-20T20:10:59.373Z,6.60
2017-09-20T20:13:26.274Z,6.90
2017-09-20T20:15:53.156Z,6.30
2017-09-20T20:18:20.034Z,6.90
2017-09-20T20:20:46.888Z,7.07
2017-09-20T20:23:13.815Z,6.80
2017-09-20T20:25:40.696Z,5.87
2017-09-20T20:28:07.519Z,6.50
2017-09-20T20:30:35.150Z,6.83
2017-09-20T20:33:02.025Z,6.40
2017-09-20T20:35:28.852Z,7.00
2017-09-20T20:37:55.775Z,7.77
2017-09-20T20:40:23.436Z,7.70
2017-09-20T20:42:50.259Z,8.30
2017-09-20T20:45:17.060Z,7.53
2017-09-20T20:47:43.889Z,6.60
2017-09-20T20:50:10.765Z,6.90
2017-09-20T20:52:37.584Z,7.30
2017-09-20T20:55:04.457Z,7.23
2017-09-20T20:57:31.348Z,7.03
2017-09-20T20:59:58.211Z,6.60
2017-09-20T21:02:25.032Z,7.40
2017-09-20T21:04:51.854Z,8.03
2017-09-20T21:07:18.694Z,8.60
2017-09-20T21:09:45.549Z,8.13
2017-09-20T21:12:12.442Z,8.40
2017-09-20T21:14:39.296Z,7.33
2017-09-20T21:17:06.139Z,8.33
2017-09-20T21:19:33.004Z,7.97
2017-09-20T21:21:59.842Z,8.40
2017-09-20T21:24:26.695Z,9.40
2017-09-20T21:26:53.550Z,8.63
2017-09-20T21:29:20.504Z,8.33
2017-09-20T21:31:47.348Z,8.53
2017-09-20T21:34:14.970Z,8.43
2017-09-20T21:36:41.788Z,7.43
2017-09-20T21:39:09.383Z,9.20
2017-09-20T21:41:36.263Z,8.83
2017-09-20T21:44:03.138Z,8.17
2017-09-20T21:46:30.004Z,7.70
2017-09-20T21:48:56.866Z,7.20
2017-09-20T21:51:23.770Z,7.20
2017-09-20T21:53:51.429Z,7.63
2017-09-20T21:56:18.316Z,8.70
2017-09-20T21:58:45.936Z,7.30
2017-09-20T22:01:12.772Z,7.43
2017-09-20T22:03:39.651Z,7.10
2017-09-20T22:06:06.486Z,8.50
2017-09-20T22:08:34.119Z,6.83
2017-09-20T22:11:00.964Z,8.50
2017-09-20T22:13:28.597Z,8.00
2017-09-20T22:16:14.384Z,9.50
2017-09-20T22:19:00.158Z,8.60
2017-09-20T22:21:45.083Z,8.47
2017-09-20T22:24:30.120Z,8.53
2017-09-20T22:26:56.569Z,7.77
2017-09-20T22:29:23.439Z,7.50
2017-09-20T22:31:50.289Z,7.77
2017-09-20T22:34:17.191Z,8.50
2017-09-20T22:36:44.015Z,8.87
2017-09-20T22:39:10.850Z,8.07
2017-09-20T22:41:37.661Z,9.40
2017-09-20T22:44:05.340Z,8.60
2017-09-20T22:46:32.955Z,9.37
2017-09-20T22:48:59.795Z,8.60
2017-09-20T22:51:26.624Z,9.10
2017-09-20T22:53:53.463Z,8.20
2017-09-20T22:56:21.365Z,10.00
2017-09-20T22:58:48.242Z,10.20
2017-09-20T23:01:15.074Z,10.63
2017-09-20T23:03:42.851Z,9.23
2017-09-20T23:06:10.463Z,10.70
2017-09-20T23:08:38.105Z,9.10
2017-09-20T23:11:05.782Z,10.87
2017-09-20T23:13:32.631Z,9.17
2017-09-20T23:15:59.493Z,9.57
2017-09-20T23:18:26.379Z,10.50
2017-09-20T23:20:53.196Z,10.50
2017-09-20T23:23:20.103Z,10.10
2017-09-20T23:25:46.938Z,10.50
2017-09-20T23:28:13.866Z,10.37
2017-09-20T23:30:40.801Z,11.00
2017-09-20T23:33:08.648Z,11.67
2017-09-20T23:35:35.640Z,9.57
2017-09-20T23:38:02.889Z,10.43
2017-09-20T23:40:30.558Z,10.90
2017-09-20T23:42:57.389Z,9.50
2017-09-20T23:45:24.979Z,9.50
2017-09-20T23:47:52.560Z,10.60
2017-09-20T23:50:19.383Z,10.77
2017-09-20T23:52:46.297Z,10.33
2017-09-20T23:55:13.145Z,10.30
2017-09-20T23:57:40.011Z,10.30
